Flight Track Log - Related Links

Times and Time Zones

All times are in EST time to prevent confusion due to time zone crossing. See the TVD272 flight status page for this flight to view local times or setup timezone preferences in your user account.

Time Position Orientation Groundspeed Altitude Reporting Facility
EST Latitude Longitude Course Direction KTS MPH feet Rate Location/Type
Thu 05:52:27 PM 47.5158 -122.2953 42° Northeast 102 117 800  Level Seattle Center
Thu 05:52:32 PM 47.5167 -122.2942 143° Southeast 112 129 800 727 Level Seattle Center
Thu 05:53:33 PM 47.4947 -122.2694 146° Southeast 103 119 1,600 836 Climbing Seattle Center
Thu 05:54:34 PM 47.4664 -122.2408 131° Southeast 104 120 2,500 787 Climbing Seattle Center
Thu 05:55:35 PM 47.4461 -122.2067 98° East 114 131 3,200 732 Climbing Seattle Center
Thu 05:56:37 PM 47.4411 -122.1536 102° East 136 157 4,000 683 Climbing Seattle Center
Thu 05:57:38 PM 47.4331 -122.0997 92° East 138 159 4,600 738 Climbing Seattle Center
Thu 05:58:39 PM 47.4317 -122.0406 89° East 147 169 5,500 885 Climbing Seattle Center
Thu 05:59:40 PM 47.4322 -121.9847 97° East 140 161 6,400 787 Climbing Seattle Center
Thu 06:00:41 PM 47.4275 -121.9292 94° East 138 159 7,100 800 Climbing Seattle Center
Thu 06:01:55 PM 47.4236 -121.8508 97° East 139 160 8,200 844 Climbing Seattle Center
Thu 06:02:56 PM 47.4192 -121.7939 96° East 140 161 9,000 787 Climbing Seattle Center
Thu 06:03:57 PM 47.4147 -121.7353 97° East 144 166 9,800 585 Climbing Seattle Center
Thu 06:04:59 PM 47.4097 -121.6711 99° East 157 181 10,200 537 Climbing Seattle Center
Thu 06:06:00 PM 47.4025 -121.6053 93° East 165 190 10,900 639 Climbing Seattle Center
Thu 06:07:01 PM 47.4003 -121.5383 93° East 166 191 11,500 295 Climbing Seattle Center
Thu 06:08:02 PM 47.3967 -121.4514 93° East 179 206 11,500  Level Seattle Center
Thu 06:09:03 PM 47.3936 -121.3744 93° East 184 212 11,500  Level Seattle Center
Thu 06:10:04 PM 47.3908 -121.3003 95° East 187 215 11,500 49 Level Seattle Center
Thu 06:11:06 PM 47.3864 -121.2253 94° East 186 214 11,600  Climbing Seattle Center
Thu 06:12:07 PM 47.3828 -121.1489 92° East 189 217 11,500 -49 Descending Seattle Center
Thu 06:13:08 PM 47.3811 -121.0750 92° East 184 212 11,500 -49 Level Seattle Center
Thu 06:14:09 PM 47.3792 -120.9997 95° East 185 213 11,400 49 Descending Seattle Center
Thu 06:15:11 PM 47.3736 -120.9142 96° East 178 205 11,600 98 Climbing Seattle Center
Thu 06:16:12 PM 47.3683 -120.8394 87° East 184 212 11,600 -49 Level Seattle Center
Thu 06:17:13 PM 47.3708 -120.7717 83° East 183 211 11,500 -49 Descending Seattle Center
Thu 06:18:14 PM 47.3767 -120.6961 83° East 183 211 11,500  Level Seattle Center
Thu 06:19:16 PM 47.3825 -120.6231 82° East 181 208 11,500  Level Seattle Center
Thu 06:20:17 PM 47.3914 -120.5319 80° East 185 213 11,500 -197 Level Seattle Center
Thu 06:21:18 PM 47.4006 -120.4547 80° East 189 217 11,100 -393 Descending Seattle Center

Login

Don't have an account? Register now (free) for customized features, flight alerts, and more!